sensor_id;sensor_type;location;lat;lon;timestamp;temperature;humidity
19862;DHT22;10093;48.148;8.542;2023-07-13T00:01:42;16.40;99.90
19862;DHT22;10093;48.148;8.542;2023-07-13T00:04:08;16.30;99.90
19862;DHT22;10093;48.148;8.542;2023-07-13T00:06:34;16.40;99.90
19862;DHT22;10093;48.148;8.542;2023-07-13T00:09:01;16.50;99.90
19862;DHT22;10093;48.148;8.542;2023-07-13T00:11:27;16.50;99.90
19862;DHT22;10093;48.148;8.542;2023-07-13T00:13:53;16.40;99.90
19862;DHT22;10093;48.148;8.542;2023-07-13T00:16:19;16.50;99.90
19862;DHT22;10093;48.148;8.542;2023-07-13T00:18:45;16.40;99.90
19862;DHT22;10093;48.148;8.542;2023-07-13T00:21:12;16.50;99.90
19862;DHT22;10093;48.148;8.542;2023-07-13T00:23:41;16.50;99.90
19862;DHT22;10093;48.148;8.542;2023-07-13T00:26:09;16.40;99.90
19862;DHT22;10093;48.148;8.542;2023-07-13T00:28:35;16.40;99.90
19862;DHT22;10093;48.148;8.542;2023-07-13T00:31:01;16.40;99.90
19862;DHT22;10093;48.148;8.542;2023-07-13T00:33:28;16.30;99.90
19862;DHT22;10093;48.148;8.542;2023-07-13T00:35:55;16.20;99.90
19862;DHT22;10093;48.148;8.542;2023-07-13T00:38:22;16.20;99.90
19862;DHT22;10093;48.148;8.542;2023-07-13T00:40:48;16.10;99.90
19862;DHT22;10093;48.148;8.542;2023-07-13T00:43:19;16.00;99.90
19862;DHT22;10093;48.148;8.542;2023-07-13T00:48:17;15.90;99.90
19862;DHT22;10093;48.148;8.542;2023-07-13T00:50:45;15.70;99.90
19862;DHT22;10093;48.148;8.542;2023-07-13T00:53:12;15.60;99.90
19862;DHT22;10093;48.148;8.542;2023-07-13T00:55:39;15.70;99.90
19862;DHT22;10093;48.148;8.542;2023-07-13T00:58:05;15.70;99.90
19862;DHT22;10093;48.148;8.542;2023-07-13T01:00:32;15.80;99.90
19862;DHT22;10093;48.148;8.542;2023-07-13T01:03:00;15.70;99.90
19862;DHT22;10093;48.148;8.542;2023-07-13T01:05:32;15.80;99.90
19862;DHT22;10093;48.148;8.542;2023-07-13T01:07:59;15.70;99.90
19862;DHT22;10093;48.148;8.542;2023-07-13T01:10:26;15.70;99.90
19862;DHT22;10093;48.148;8.542;2023-07-13T01:12:52;15.70;99.90
19862;DHT22;10093;48.148;8.542;2023-07-13T01:15:41;15.80;99.90
19862;DHT22;10093;48.148;8.542;2023-07-13T01:18:12;15.90;99.90
19862;DHT22;10093;48.148;8.542;2023-07-13T01:20:38;15.90;99.90
19862;DHT22;10093;48.148;8.542;2023-07-13T01:23:10;15.60;99.90
19862;DHT22;10093;48.148;8.542;2023-07-13T01:25:37;15.50;99.90
19862;DHT22;10093;48.148;8.542;2023-07-13T01:28:05;15.40;99.90
19862;DHT22;10093;48.148;8.542;2023-07-13T01:30:31;15.40;99.90
19862;DHT22;10093;48.148;8.542;2023-07-13T01:32:57;15.30;99.90
19862;DHT22;10093;48.148;8.542;2023-07-13T01:35:23;15.30;99.90
19862;DHT22;10093;48.148;8.542;2023-07-13T01:37:51;15.10;99.90
19862;DHT22;10093;48.148;8.542;2023-07-13T01:40:16;15.10;99.90
19862;DHT22;10093;48.148;8.542;2023-07-13T01:42:42;15.10;99.90
19862;DHT22;10093;48.148;8.542;2023-07-13T01:45:08;15.00;99.90
19862;DHT22;10093;48.148;8.542;2023-07-13T01:47:34;14.80;99.90
19862;DHT22;10093;48.148;8.542;2023-07-13T01:49:59;14.80;99.90
19862;DHT22;10093;48.148;8.542;2023-07-13T01:52:25;14.60;99.90
19862;DHT22;10093;48.148;8.542;2023-07-13T01:54:50;14.50;99.90
19862;DHT22;10093;48.148;8.542;2023-07-13T01:57:16;14.40;99.90
19862;DHT22;10093;48.148;8.542;2023-07-13T01:59:42;14.40;99.90
19862;DHT22;10093;48.148;8.542;2023-07-13T02:02:07;14.40;99.90
19862;DHT22;10093;48.148;8.542;2023-07-13T02:04:34;14.50;99.90
19862;DHT22;10093;48.148;8.542;2023-07-13T02:07:00;14.50;99.90
19862;DHT22;10093;48.148;8.542;2023-07-13T02:09:25;14.50;99.90
19862;DHT22;10093;48.148;8.542;2023-07-13T02:11:51;14.60;99.90
19862;DHT22;10093;48.148;8.542;2023-07-13T02:14:16;14.50;99.90
19862;DHT22;10093;48.148;8.542;2023-07-13T02:16:42;14.50;99.90
19862;DHT22;10093;48.148;8.542;2023-07-13T02:19:08;14.30;99.90
19862;DHT22;10093;48.148;8.542;2023-07-13T02:21:34;14.10;99.90
19862;DHT22;10093;48.148;8.542;2023-07-13T02:24:00;14.20;99.90
19862;DHT22;10093;48.148;8.542;2023-07-13T02:26:27;14.10;99.90
19862;DHT22;10093;48.148;8.542;2023-07-13T02:28:52;14.50;99.90
19862;DHT22;10093;48.148;8.542;2023-07-13T02:31:18;14.50;99.90
19862;DHT22;10093;48.148;8.542;2023-07-13T02:33:44;14.40;99.90
19862;DHT22;10093;48.148;8.542;2023-07-13T02:36:10;14.30;99.90
19862;DHT22;10093;48.148;8.542;2023-07-13T02:38:36;14.20;99.90
19862;DHT22;10093;48.148;8.542;2023-07-13T02:41:03;14.40;99.90
19862;DHT22;10093;48.148;8.542;2023-07-13T02:43:29;14.20;99.90
19862;DHT22;10093;48.148;8.542;2023-07-13T02:45:55;14.10;99.90
19862;DHT22;10093;48.148;8.542;2023-07-13T02:48:21;14.00;99.90
19862;DHT22;10093;48.148;8.542;2023-07-13T02:50:46;14.00;99.90
19862;DHT22;10093;48.148;8.542;2023-07-13T02:53:12;13.90;99.90
19862;DHT22;10093;48.148;8.542;2023-07-13T02:55:38;13.90;99.90
19862;DHT22;10093;48.148;8.542;2023-07-13T02:58:05;13.90;99.90
19862;DHT22;10093;48.148;8.542;2023-07-13T03:00:31;13.80;99.90
19862;DHT22;10093;48.148;8.542;2023-07-13T03:02:56;14.10;99.90
19862;DHT22;10093;48.148;8.542;2023-07-13T03:05:23;14.30;99.90
19862;DHT22;10093;48.148;8.542;2023-07-13T03:07:49;14.30;99.90
19862;DHT22;10093;48.148;8.542;2023-07-13T03:10:15;14.10;99.90
19862;DHT22;10093;48.148;8.542;2023-07-13T03:12:42;13.80;99.90
19862;DHT22;10093;48.148;8.542;2023-07-13T03:15:07;13.70;99.90
19862;DHT22;10093;48.148;8.542;2023-07-13T03:17:33;13.50;99.90
19862;DHT22;10093;48.148;8.542;2023-07-13T03:19:58;13.30;99.90
19862;DHT22;10093;48.148;8.542;2023-07-13T03:22:24;13.20;99.90
19862;DHT22;10093;48.148;8.542;2023-07-13T03:24:50;13.10;99.90
19862;DHT22;10093;48.148;8.542;2023-07-13T03:27:17;13.00;99.90
19862;DHT22;10093;48.148;8.542;2023-07-13T03:29:43;13.00;99.90
19862;DHT22;10093;48.148;8.542;2023-07-13T03:32:09;13.00;99.90
19862;DHT22;10093;48.148;8.542;2023-07-13T03:34:35;13.00;99.90
19862;DHT22;10093;48.148;8.542;2023-07-13T03:37:00;13.00;99.90
19862;DHT22;10093;48.148;8.542;2023-07-13T03:39:26;13.10;99.90
19862;DHT22;10093;48.148;8.542;2023-07-13T03:41:52;13.60;99.90
19862;DHT22;10093;48.148;8.542;2023-07-13T03:44:18;13.70;99.90
19862;DHT22;10093;48.148;8.542;2023-07-13T03:46:44;13.70;99.90
19862;DHT22;10093;48.148;8.542;2023-07-13T03:49:10;13.50;99.90
19862;DHT22;10093;48.148;8.542;2023-07-13T03:51:35;13.30;99.90
19862;DHT22;10093;48.148;8.542;2023-07-13T03:54:01;13.10;99.90
19862;DHT22;10093;48.148;8.542;2023-07-13T03:56:28;13.30;99.90
19862;DHT22;10093;48.148;8.542;2023-07-13T03:58:54;13.50;99.90
19862;DHT22;10093;48.148;8.542;2023-07-13T04:01:21;13.60;99.90
19862;DHT22;10093;48.148;8.542;2023-07-13T04:03:47;13.50;99.90
19862;DHT22;10093;48.148;8.542;2023-07-13T04:06:19;13.50;99.90
19862;DHT22;10093;48.148;8.542;2023-07-13T04:08:51;13.60;99.90
19862;DHT22;10093;48.148;8.542;2023-07-13T04:11:19;13.70;99.90
19862;DHT22;10093;48.148;8.542;2023-07-13T04:13:45;13.80;99.90
19862;DHT22;10093;48.148;8.542;2023-07-13T04:16:12;13.90;99.90
19862;DHT22;10093;48.148;8.542;2023-07-13T04:18:37;14.10;99.90
19862;DHT22;10093;48.148;8.542;2023-07-13T04:21:03;14.10;99.90
19862;DHT22;10093;48.148;8.542;2023-07-13T04:23:28;14.30;99.90
19862;DHT22;10093;48.148;8.542;2023-07-13T04:25:54;14.30;99.90
19862;DHT22;10093;48.148;8.542;2023-07-13T04:28:22;14.30;99.90
19862;DHT22;10093;48.148;8.542;2023-07-13T04:30:48;14.40;99.90
19862;DHT22;10093;48.148;8.542;2023-07-13T04:33:14;14.30;99.90
19862;DHT22;10093;48.148;8.542;2023-07-13T04:35:42;14.30;99.90
19862;DHT22;10093;48.148;8.542;2023-07-13T04:38:08;14.50;99.90
19862;DHT22;10093;48.148;8.542;2023-07-13T04:40:36;14.60;99.90
19862;DHT22;10093;48.148;8.542;2023-07-13T04:43:02;14.70;99.90
19862;DHT22;10093;48.148;8.542;2023-07-13T04:45:28;14.80;99.90
19862;DHT22;10093;48.148;8.542;2023-07-13T04:47:54;14.90;99.90
19862;DHT22;10093;48.148;8.542;2023-07-13T04:50:19;14.90;99.90
19862;DHT22;10093;48.148;8.542;2023-07-13T04:52:49;15.00;99.90
19862;DHT22;10093;48.148;8.542;2023-07-13T04:55:15;15.10;99.90
19862;DHT22;10093;48.148;8.542;2023-07-13T04:57:41;15.10;99.90
19862;DHT22;10093;48.148;8.542;2023-07-13T05:00:07;15.20;99.90
19862;DHT22;10093;48.148;8.542;2023-07-13T05:02:33;15.20;99.90
19862;DHT22;10093;48.148;8.542;2023-07-13T05:05:01;15.40;99.90
19862;DHT22;10093;48.148;8.542;2023-07-13T05:07:26;15.40;99.90
19862;DHT22;10093;48.148;8.542;2023-07-13T05:09:52;15.50;99.90
19862;DHT22;10093;48.148;8.542;2023-07-13T05:12:18;15.80;99.90
19862;DHT22;10093;48.148;8.542;2023-07-13T05:14:44;16.10;99.90
19862;DHT22;10093;48.148;8.542;2023-07-13T05:17:10;16.30;99.90
19862;DHT22;10093;48.148;8.542;2023-07-13T05:19:36;16.50;99.90
19862;DHT22;10093;48.148;8.542;2023-07-13T05:22:01;16.70;99.90
19862;DHT22;10093;48.148;8.542;2023-07-13T05:24:28;17.00;99.90
19862;DHT22;10093;48.148;8.542;2023-07-13T05:26:53;17.20;99.90
19862;DHT22;10093;48.148;8.542;2023-07-13T05:29:20;17.50;99.90
19862;DHT22;10093;48.148;8.542;2023-07-13T05:31:45;17.90;99.90
19862;DHT22;10093;48.148;8.542;2023-07-13T05:34:11;18.40;99.90
19862;DHT22;10093;48.148;8.542;2023-07-13T05:36:37;18.80;99.90
19862;DHT22;10093;48.148;8.542;2023-07-13T05:39:03;19.20;99.90
19862;DHT22;10093;48.148;8.542;2023-07-13T05:41:29;19.50;99.90
19862;DHT22;10093;48.148;8.542;2023-07-13T05:43:54;19.70;99.90
19862;DHT22;10093;48.148;8.542;2023-07-13T05:46:20;19.60;99.90
19862;DHT22;10093;48.148;8.542;2023-07-13T05:48:46;19.30;99.90
19862;DHT22;10093;48.148;8.542;2023-07-13T05:51:14;19.30;99.90
19862;DHT22;10093;48.148;8.542;2023-07-13T05:53:40;19.00;99.90
19862;DHT22;10093;48.148;8.542;2023-07-13T05:56:05;18.90;99.90
19862;DHT22;10093;48.148;8.542;2023-07-13T05:58:31;18.80;99.90
19862;DHT22;10093;48.148;8.542;2023-07-13T06:01:05;19.00;99.90
19862;DHT22;10093;48.148;8.542;2023-07-13T06:03:31;19.80;99.90
19862;DHT22;10093;48.148;8.542;2023-07-13T06:05:57;22.10;99.90
19862;DHT22;10093;48.148;8.542;2023-07-13T06:08:25;23.70;99.90
19862;DHT22;10093;48.148;8.542;2023-07-13T06:10:51;25.10;99.90
19862;DHT22;10093;48.148;8.542;2023-07-13T06:13:17;26.50;99.90
19862;DHT22;10093;48.148;8.542;2023-07-13T06:15:48;27.00;99.90
19862;DHT22;10093;48.148;8.542;2023-07-13T06:18:14;27.10;99.90
19862;DHT22;10093;48.148;8.542;2023-07-13T06:20:40;27.40;99.90
19862;DHT22;10093;48.148;8.542;2023-07-13T06:23:05;28.40;99.90
19862;DHT22;10093;48.148;8.542;2023-07-13T06:25:31;28.80;99.90
19862;DHT22;10093;48.148;8.542;2023-07-13T06:27:57;28.70;99.90
19862;DHT22;10093;48.148;8.542;2023-07-13T06:30:22;30.00;99.90
19862;DHT22;10093;48.148;8.542;2023-07-13T06:32:48;30.50;99.90
19862;DHT22;10093;48.148;8.542;2023-07-13T06:35:14;30.50;99.90
19862;DHT22;10093;48.148;8.542;2023-07-13T06:37:39;30.50;99.90
19862;DHT22;10093;48.148;8.542;2023-07-13T06:40:05;31.00;99.90
19862;DHT22;10093;48.148;8.542;2023-07-13T06:42:31;31.50;99.90
19862;DHT22;10093;48.148;8.542;2023-07-13T06:44:57;31.60;99.90
19862;DHT22;10093;48.148;8.542;2023-07-13T06:47:22;31.80;99.90
19862;DHT22;10093;48.148;8.542;2023-07-13T06:49:48;31.90;99.90
19862;DHT22;10093;48.148;8.542;2023-07-13T06:52:14;31.60;99.90
19862;DHT22;10093;48.148;8.542;2023-07-13T06:54:39;31.80;99.90
19862;DHT22;10093;48.148;8.542;2023-07-13T06:57:05;31.90;99.90
19862;DHT22;10093;48.148;8.542;2023-07-13T06:59:31;31.80;99.90
19862;DHT22;10093;48.148;8.542;2023-07-13T07:01:56;31.50;99.90
19862;DHT22;10093;48.148;8.542;2023-07-13T07:04:22;31.10;99.90
19862;DHT22;10093;48.148;8.542;2023-07-13T07:06:47;30.90;99.90
19862;DHT22;10093;48.148;8.542;2023-07-13T07:09:13;29.40;99.90
19862;DHT22;10093;48.148;8.542;2023-07-13T07:11:39;27.10;99.90
19862;DHT22;10093;48.148;8.542;2023-07-13T07:14:04;27.60;99.90
19862;DHT22;10093;48.148;8.542;2023-07-13T07:16:30;26.80;99.90
19862;DHT22;10093;48.148;8.542;2023-07-13T07:18:56;27.00;99.90
19862;DHT22;10093;48.148;8.542;2023-07-13T07:21:21;27.70;99.90
19862;DHT22;10093;48.148;8.542;2023-07-13T07:23:48;29.00;99.90
19862;DHT22;10093;48.148;8.542;2023-07-13T07:26:14;30.90;99.90
19862;DHT22;10093;48.148;8.542;2023-07-13T07:28:40;30.40;99.90
19862;DHT22;10093;48.148;8.542;2023-07-13T07:31:06;29.60;99.90
19862;DHT22;10093;48.148;8.542;2023-07-13T07:33:33;28.50;99.90
19862;DHT22;10093;48.148;8.542;2023-07-13T07:35:59;29.40;99.90
19862;DHT22;10093;48.148;8.542;2023-07-13T07:38:25;29.40;99.90
19862;DHT22;10093;48.148;8.542;2023-07-13T07:40:51;30.10;99.90
19862;DHT22;10093;48.148;8.542;2023-07-13T07:43:17;30.10;99.90
19862;DHT22;10093;48.148;8.542;2023-07-13T07:45:44;29.30;99.90
19862;DHT22;10093;48.148;8.542;2023-07-13T07:48:10;30.10;99.90
19862;DHT22;10093;48.148;8.542;2023-07-13T07:50:36;29.10;99.90
19862;DHT22;10093;48.148;8.542;2023-07-13T07:53:02;26.90;99.90
19862;DHT22;10093;48.148;8.542;2023-07-13T07:55:28;26.10;99.90
19862;DHT22;10093;48.148;8.542;2023-07-13T07:57:55;25.20;99.90
19862;DHT22;10093;48.148;8.542;2023-07-13T08:00:21;24.70;99.90
19862;DHT22;10093;48.148;8.542;2023-07-13T08:02:47;25.20;99.90
19862;DHT22;10093;48.148;8.542;2023-07-13T08:05:13;27.00;99.90
19862;DHT22;10093;48.148;8.542;2023-07-13T08:07:39;28.70;99.90
19862;DHT22;10093;48.148;8.542;2023-07-13T08:10:06;27.50;99.90
19862;DHT22;10093;48.148;8.542;2023-07-13T08:12:36;25.50;99.90
19862;DHT22;10093;48.148;8.542;2023-07-13T08:15:03;22.90;99.90
19862;DHT22;10093;48.148;8.542;2023-07-13T08:17:29;21.80;99.90
19862;DHT22;10093;48.148;8.542;2023-07-13T08:19:54;22.20;99.90
19862;DHT22;10093;48.148;8.542;2023-07-13T08:22:20;22.40;99.90
19862;DHT22;10093;48.148;8.542;2023-07-13T08:24:46;23.10;99.90
19862;DHT22;10093;48.148;8.542;2023-07-13T08:27:13;24.70;99.90
19862;DHT22;10093;48.148;8.542;2023-07-13T08:29:39;26.10;99.90
19862;DHT22;10093;48.148;8.542;2023-07-13T08:32:06;25.40;99.90
19862;DHT22;10093;48.148;8.542;2023-07-13T08:34:35;26.90;99.90
19862;DHT22;10093;48.148;8.542;2023-07-13T08:37:01;27.90;99.90
19862;DHT22;10093;48.148;8.542;2023-07-13T08:39:26;26.80;99.90
19862;DHT22;10093;48.148;8.542;2023-07-13T08:41:58;27.30;99.90
19862;DHT22;10093;48.148;8.542;2023-07-13T08:45:07;26.10;99.90
19862;DHT22;10093;48.148;8.542;2023-07-13T08:47:39;24.90;99.90
19862;DHT22;10093;48.148;8.542;2023-07-13T08:50:05;24.70;99.90
19862;DHT22;10093;48.148;8.542;2023-07-13T08:52:37;24.70;99.90
19862;DHT22;10093;48.148;8.542;2023-07-13T08:57:40;26.10;99.90
19862;DHT22;10093;48.148;8.542;2023-07-13T09:00:10;26.40;99.90
19862;DHT22;10093;48.148;8.542;2023-07-13T09:02:56;27.20;99.90
19862;DHT22;10093;48.148;8.542;2023-07-13T09:05:38;27.30;99.90
19862;DHT22;10093;48.148;8.542;2023-07-13T09:08:38;28.40;99.90
19862;DHT22;10093;48.148;8.542;2023-07-13T09:13:45;24.70;99.90
19862;DHT22;10093;48.148;8.542;2023-07-13T09:16:14;25.80;99.90
19862;DHT22;10093;48.148;8.542;2023-07-13T09:18:46;26.70;99.90
19862;DHT22;10093;48.148;8.542;2023-07-13T09:21:23;26.50;99.90
19862;DHT22;10093;48.148;8.542;2023-07-13T09:26:23;28.80;99.90
19862;DHT22;10093;48.148;8.542;2023-07-13T09:29:14;27.40;99.90
19862;DHT22;10093;48.148;8.542;2023-07-13T09:31:45;26.50;99.90
19862;DHT22;10093;48.148;8.542;2023-07-13T09:34:12;25.60;99.90
19862;DHT22;10093;48.148;8.542;2023-07-13T09:36:38;25.50;99.90
19862;DHT22;10093;48.148;8.542;2023-07-13T09:47:26;24.70;99.90
19862;DHT22;10093;48.148;8.542;2023-07-13T09:50:00;28.00;99.90
19862;DHT22;10093;48.148;8.542;2023-07-13T09:52:27;30.70;99.90
19862;DHT22;10093;48.148;8.542;2023-07-13T09:54:54;29.60;99.90
19862;DHT22;10093;48.148;8.542;2023-07-13T09:57:26;28.10;99.90
19862;DHT22;10093;48.148;8.542;2023-07-13T09:59:54;26.40;99.90
19862;DHT22;10093;48.148;8.542;2023-07-13T10:02:30;26.90;99.90
19862;DHT22;10093;48.148;8.542;2023-07-13T10:05:11;28.30;99.90
19862;DHT22;10093;48.148;8.542;2023-07-13T10:07:43;27.90;99.90
19862;DHT22;10093;48.148;8.542;2023-07-13T10:10:20;27.80;99.90
19862;DHT22;10093;48.148;8.542;2023-07-13T10:12:47;27.20;99.90
19862;DHT22;10093;48.148;8.542;2023-07-13T10:15:17;26.40;99.90
19862;DHT22;10093;48.148;8.542;2023-07-13T10:17:43;27.60;99.90
19862;DHT22;10093;48.148;8.542;2023-07-13T10:20:09;29.30;99.90
19862;DHT22;10093;48.148;8.542;2023-07-13T10:23:10;30.20;99.90
19862;DHT22;10093;48.148;8.542;2023-07-13T10:25:42;30.90;99.00
19862;DHT22;10093;48.148;8.542;2023-07-13T10:28:33;30.30;98.90
19862;DHT22;10093;48.148;8.542;2023-07-13T10:31:01;28.70;99.90
19862;DHT22;10093;48.148;8.542;2023-07-13T10:33:28;29.60;99.90
19862;DHT22;10093;48.148;8.542;2023-07-13T10:36:15;29.40;98.40
19862;DHT22;10093;48.148;8.542;2023-07-13T10:38:43;28.50;99.90
19862;DHT22;10093;48.148;8.542;2023-07-13T10:41:18;29.40;99.70
19862;DHT22;10093;48.148;8.542;2023-07-13T10:43:49;26.60;99.90
19862;DHT22;10093;48.148;8.542;2023-07-13T10:46:18;24.70;99.90
19862;DHT22;10093;48.148;8.542;2023-07-13T10:48:48;25.50;99.90
19862;DHT22;10093;48.148;8.542;2023-07-13T10:51:17;25.50;99.90
19862;DHT22;10093;48.148;8.542;2023-07-13T10:53:43;26.10;99.90
19862;DHT22;10093;48.148;8.542;2023-07-13T10:56:29;26.90;99.90
19862;DHT22;10093;48.148;8.542;2023-07-13T10:59:25;27.30;99.90
19862;DHT22;10093;48.148;8.542;2023-07-13T11:01:58;27.90;99.90
19862;DHT22;10093;48.148;8.542;2023-07-13T11:04:43;28.20;99.90
19862;DHT22;10093;48.148;8.542;2023-07-13T11:07:19;30.00;98.70
19862;DHT22;10093;48.148;8.542;2023-07-13T11:09:52;30.40;98.70
19862;DHT22;10093;48.148;8.542;2023-07-13T11:23:08;27.70;99.90
19862;DHT22;10093;48.148;8.542;2023-07-13T11:25:35;27.90;99.90
19862;DHT22;10093;48.148;8.542;2023-07-13T11:30:38;28.00;99.90
19862;DHT22;10093;48.148;8.542;2023-07-13T11:33:28;27.90;99.40
19862;DHT22;10093;48.148;8.542;2023-07-13T11:36:02;27.10;99.90
19862;DHT22;10093;48.148;8.542;2023-07-13T11:38:57;27.00;99.90
19862;DHT22;10093;48.148;8.542;2023-07-13T11:41:29;27.40;99.50
19862;DHT22;10093;48.148;8.542;2023-07-13T11:44:07;27.20;99.90
19862;DHT22;10093;48.148;8.542;2023-07-13T11:46:32;26.20;99.90
19862;DHT22;10093;48.148;8.542;2023-07-13T11:48:58;26.90;99.40
19862;DHT22;10093;48.148;8.542;2023-07-13T11:51:30;28.60;98.60
19862;DHT22;10093;48.148;8.542;2023-07-13T11:54:00;29.90;98.00
19862;DHT22;10093;48.148;8.542;2023-07-13T11:56:27;29.00;99.20
19862;DHT22;10093;48.148;8.542;2023-07-13T11:58:55;28.60;99.90
19862;DHT22;10093;48.148;8.542;2023-07-13T12:01:28;28.70;99.90
19862;DHT22;10093;48.148;8.542;2023-07-13T12:04:03;29.20;98.00
19862;DHT22;10093;48.148;8.542;2023-07-13T12:06:31;30.10;98.20
19862;DHT22;10093;48.148;8.542;2023-07-13T12:09:00;30.50;99.00
19862;DHT22;10093;48.148;8.542;2023-07-13T12:11:29;32.10;97.90
19862;DHT22;10093;48.148;8.542;2023-07-13T12:13:55;32.80;94.90
19862;DHT22;10093;48.148;8.542;2023-07-13T12:16:26;31.40;95.80
19862;DHT22;10093;48.148;8.542;2023-07-13T12:18:53;30.00;96.20
19862;DHT22;10093;48.148;8.542;2023-07-13T12:21:23;28.70;98.70
19862;DHT22;10093;48.148;8.542;2023-07-13T12:23:51;27.90;99.40
19862;DHT22;10093;48.148;8.542;2023-07-13T12:26:18;27.60;96.90
19862;DHT22;10093;48.148;8.542;2023-07-13T12:28:49;27.40;97.60
19862;DHT22;10093;48.148;8.542;2023-07-13T12:31:37;28.20;97.60
19862;DHT22;10093;48.148;8.542;2023-07-13T12:34:08;29.10;97.40
19862;DHT22;10093;48.148;8.542;2023-07-13T12:37:00;28.70;97.80
19862;DHT22;10093;48.148;8.542;2023-07-13T12:39:35;28.20;98.90
19862;DHT22;10093;48.148;8.542;2023-07-13T12:42:33;27.50;99.30
19862;DHT22;10093;48.148;8.542;2023-07-13T12:45:05;26.70;99.90
19862;DHT22;10093;48.148;8.542;2023-07-13T12:47:42;27.80;99.70
19862;DHT22;10093;48.148;8.542;2023-07-13T12:50:39;28.20;99.90
19862;DHT22;10093;48.148;8.542;2023-07-13T12:53:13;28.20;98.80
19862;DHT22;10093;48.148;8.542;2023-07-13T12:55:52;27.90;99.90
19862;DHT22;10093;48.148;8.542;2023-07-13T12:58:40;27.20;99.90
19862;DHT22;10093;48.148;8.542;2023-07-13T13:01:11;26.90;99.90
19862;DHT22;10093;48.148;8.542;2023-07-13T13:03:46;27.50;99.90
19862;DHT22;10093;48.148;8.542;2023-07-13T13:08:53;27.90;99.30
19862;DHT22;10093;48.148;8.542;2023-07-13T13:11:20;27.60;99.60
19862;DHT22;10093;48.148;8.542;2023-07-13T13:13:46;27.90;99.90
19862;DHT22;10093;48.148;8.542;2023-07-13T13:16:33;28.80;99.30
19862;DHT22;10093;48.148;8.542;2023-07-13T13:19:36;29.70;99.10
19862;DHT22;10093;48.148;8.542;2023-07-13T13:21:56;29.40;99.60
19862;DHT22;10093;48.148;8.542;2023-07-13T13:24:24;30.20;98.20
19862;DHT22;10093;48.148;8.542;2023-07-13T13:26:52;30.40;96.70
19862;DHT22;10093;48.148;8.542;2023-07-13T13:29:21;29.70;96.80
19862;DHT22;10093;48.148;8.542;2023-07-13T13:31:49;29.50;97.50
19862;DHT22;10093;48.148;8.542;2023-07-13T13:34:16;29.30;96.60
19862;DHT22;10093;48.148;8.542;2023-07-13T13:36:43;28.40;97.00
19862;DHT22;10093;48.148;8.542;2023-07-13T13:41:41;30.40;99.00
19862;DHT22;10093;48.148;8.542;2023-07-13T13:44:09;30.60;96.40
19862;DHT22;10093;48.148;8.542;2023-07-13T13:46:35;31.20;96.60
19862;DHT22;10093;48.148;8.542;2023-07-13T13:49:01;32.10;95.30
19862;DHT22;10093;48.148;8.542;2023-07-13T13:51:28;32.30;95.40
19862;DHT22;10093;48.148;8.542;2023-07-13T13:53:54;30.30;95.00
19862;DHT22;10093;48.148;8.542;2023-07-13T13:56:20;30.10;97.00
19862;DHT22;10093;48.148;8.542;2023-07-13T13:58:46;30.80;96.90
19862;DHT22;10093;48.148;8.542;2023-07-13T14:01:22;30.30;97.10
19862;DHT22;10093;48.148;8.542;2023-07-13T14:03:50;29.90;97.10
19862;DHT22;10093;48.148;8.542;2023-07-13T14:06:18;29.40;98.50
19862;DHT22;10093;48.148;8.542;2023-07-13T14:08:44;29.20;97.40
19862;DHT22;10093;48.148;8.542;2023-07-13T14:11:12;28.60;99.50
19862;DHT22;10093;48.148;8.542;2023-07-13T14:13:42;28.80;98.30
19862;DHT22;10093;48.148;8.542;2023-07-13T14:16:15;28.80;98.30
19862;DHT22;10093;48.148;8.542;2023-07-13T14:18:42;29.00;98.30
19862;DHT22;10093;48.148;8.542;2023-07-13T14:21:15;29.50;98.30
19862;DHT22;10093;48.148;8.542;2023-07-13T14:23:41;29.60;98.80
19862;DHT22;10093;48.148;8.542;2023-07-13T14:26:15;29.20;98.60
19862;DHT22;10093;48.148;8.542;2023-07-13T14:28:43;29.00;98.50
19862;DHT22;10093;48.148;8.542;2023-07-13T14:31:13;28.40;98.70
19862;DHT22;10093;48.148;8.542;2023-07-13T14:33:39;27.50;99.00
19862;DHT22;10093;48.148;8.542;2023-07-13T14:36:25;26.80;99.90
19862;DHT22;10093;48.148;8.542;2023-07-13T14:38:52;26.30;99.90
19862;DHT22;10093;48.148;8.542;2023-07-13T14:41:19;25.60;99.90
19862;DHT22;10093;48.148;8.542;2023-07-13T14:43:46;25.90;99.90
19862;DHT22;10093;48.148;8.542;2023-07-13T14:46:33;26.90;99.90
19862;DHT22;10093;48.148;8.542;2023-07-13T14:49:06;27.00;99.90
19862;DHT22;10093;48.148;8.542;2023-07-13T14:51:33;26.90;99.90
19862;DHT22;10093;48.148;8.542;2023-07-13T14:54:03;26.40;99.90
19862;DHT22;10093;48.148;8.542;2023-07-13T14:56:29;25.90;99.90
19862;DHT22;10093;48.148;8.542;2023-07-13T14:58:54;25.30;99.90
19862;DHT22;10093;48.148;8.542;2023-07-13T15:01:20;25.10;99.90
19862;DHT22;10093;48.148;8.542;2023-07-13T15:03:49;24.80;99.90
19862;DHT22;10093;48.148;8.542;2023-07-13T15:06:15;25.30;99.90
19862;DHT22;10093;48.148;8.542;2023-07-13T15:08:41;26.10;99.90
19862;DHT22;10093;48.148;8.542;2023-07-13T15:11:08;26.60;99.90
19862;DHT22;10093;48.148;8.542;2023-07-13T15:13:33;26.70;99.90
19862;DHT22;10093;48.148;8.542;2023-07-13T15:16:00;26.50;99.90
19862;DHT22;10093;48.148;8.542;2023-07-13T15:18:27;26.30;99.90
19862;DHT22;10093;48.148;8.542;2023-07-13T15:20:53;25.90;99.90
19862;DHT22;10093;48.148;8.542;2023-07-13T15:23:21;25.50;99.90
19862;DHT22;10093;48.148;8.542;2023-07-13T15:25:51;25.20;99.90
19862;DHT22;10093;48.148;8.542;2023-07-13T15:28:17;24.90;99.90
19862;DHT22;10093;48.148;8.542;2023-07-13T15:30:45;24.90;99.90
19862;DHT22;10093;48.148;8.542;2023-07-13T15:33:24;24.60;99.90
19862;DHT22;10093;48.148;8.542;2023-07-13T15:35:51;24.70;99.90
19862;DHT22;10093;48.148;8.542;2023-07-13T15:38:23;24.60;99.90
19862;DHT22;10093;48.148;8.542;2023-07-13T15:40:50;24.80;99.90
19862;DHT22;10093;48.148;8.542;2023-07-13T15:43:17;24.70;99.90
19862;DHT22;10093;48.148;8.542;2023-07-13T15:45:44;24.40;99.90
19862;DHT22;10093;48.148;8.542;2023-07-13T15:48:15;24.20;99.90
19862;DHT22;10093;48.148;8.542;2023-07-13T15:50:46;24.30;99.90
19862;DHT22;10093;48.148;8.542;2023-07-13T15:53:13;24.10;99.90
19862;DHT22;10093;48.148;8.542;2023-07-13T15:55:40;23.90;99.90
19862;DHT22;10093;48.148;8.542;2023-07-13T15:58:11;23.70;99.90
19862;DHT22;10093;48.148;8.542;2023-07-13T16:00:37;23.90;99.90
19862;DHT22;10093;48.148;8.542;2023-07-13T16:03:03;24.20;99.90
19862;DHT22;10093;48.148;8.542;2023-07-13T16:05:30;24.50;99.90
19862;DHT22;10093;48.148;8.542;2023-07-13T16:07:56;24.60;99.90
19862;DHT22;10093;48.148;8.542;2023-07-13T16:10:31;24.60;99.90
19862;DHT22;10093;48.148;8.542;2023-07-13T16:12:58;24.50;99.90
19862;DHT22;10093;48.148;8.542;2023-07-13T16:15:24;24.20;99.90
19862;DHT22;10093;48.148;8.542;2023-07-13T16:17:50;24.10;99.90